sensor_id;sensor_type;location;lat;lon;timestamp;temperature;humidity
15259;DHT22;34462;51.368;12.364;2023-07-08T00:01:17;19.50;99.90
15259;DHT22;34462;51.368;12.364;2023-07-08T00:03:46;19.50;99.90
15259;DHT22;34462;51.368;12.364;2023-07-08T00:06:19;19.40;99.90
15259;DHT22;34462;51.368;12.364;2023-07-08T00:08:49;19.40;99.90
15259;DHT22;34462;51.368;12.364;2023-07-08T00:11:18;19.30;99.90
15259;DHT22;34462;51.368;12.364;2023-07-08T00:13:46;19.30;99.90
15259;DHT22;34462;51.368;12.364;2023-07-08T00:16:18;19.30;99.90
15259;DHT22;34462;51.368;12.364;2023-07-08T00:18:47;19.30;99.90
15259;DHT22;34462;51.368;12.364;2023-07-08T00:21:17;19.30;99.90
15259;DHT22;34462;51.368;12.364;2023-07-08T00:23:47;19.30;99.90
15259;DHT22;34462;51.368;12.364;2023-07-08T00:26:19;19.30;99.90
15259;DHT22;34462;51.368;12.364;2023-07-08T00:28:51;19.30;99.90
15259;DHT22;34462;51.368;12.364;2023-07-08T00:31:19;19.20;99.90
15259;DHT22;34462;51.368;12.364;2023-07-08T00:33:51;19.20;99.90
15259;DHT22;34462;51.368;12.364;2023-07-08T00:36:26;19.30;99.90
15259;DHT22;34462;51.368;12.364;2023-07-08T00:38:55;19.20;99.90
15259;DHT22;34462;51.368;12.364;2023-07-08T00:41:27;19.20;99.90
15259;DHT22;34462;51.368;12.364;2023-07-08T00:43:59;19.20;99.90
15259;DHT22;34462;51.368;12.364;2023-07-08T00:46:46;19.10;99.90
15259;DHT22;34462;51.368;12.364;2023-07-08T00:49:28;19.10;99.90
15259;DHT22;34462;51.368;12.364;2023-07-08T00:52:18;19.10;99.90
15259;DHT22;34462;51.368;12.364;2023-07-08T00:54:53;19.00;99.90
15259;DHT22;34462;51.368;12.364;2023-07-08T00:57:24;18.90;99.90
15259;DHT22;34462;51.368;12.364;2023-07-08T00:59:58;18.90;99.90
15259;DHT22;34462;51.368;12.364;2023-07-08T01:02:33;18.90;99.90
15259;DHT22;34462;51.368;12.364;2023-07-08T01:05:06;18.90;99.90
15259;DHT22;34462;51.368;12.364;2023-07-08T01:07:40;18.90;99.90
15259;DHT22;34462;51.368;12.364;2023-07-08T01:10:14;18.90;99.90
15259;DHT22;34462;51.368;12.364;2023-07-08T01:12:48;18.90;99.90
15259;DHT22;34462;51.368;12.364;2023-07-08T01:15:20;18.90;99.90
15259;DHT22;34462;51.368;12.364;2023-07-08T01:17:51;18.80;99.90
15259;DHT22;34462;51.368;12.364;2023-07-08T01:20:20;18.80;99.90
15259;DHT22;34462;51.368;12.364;2023-07-08T01:22:50;18.90;99.90
15259;DHT22;34462;51.368;12.364;2023-07-08T01:25:18;18.90;99.90
15259;DHT22;34462;51.368;12.364;2023-07-08T01:27:51;18.90;99.90
15259;DHT22;34462;51.368;12.364;2023-07-08T01:30:22;18.90;99.90
15259;DHT22;34462;51.368;12.364;2023-07-08T01:32:55;18.90;99.90
15259;DHT22;34462;51.368;12.364;2023-07-08T01:35:26;18.80;99.90
15259;DHT22;34462;51.368;12.364;2023-07-08T01:37:58;18.80;99.90
15259;DHT22;34462;51.368;12.364;2023-07-08T01:40:30;18.80;99.90
15259;DHT22;34462;51.368;12.364;2023-07-08T01:43:02;18.80;99.90
15259;DHT22;34462;51.368;12.364;2023-07-08T01:45:38;18.80;99.90
15259;DHT22;34462;51.368;12.364;2023-07-08T01:48:11;18.70;99.90
15259;DHT22;34462;51.368;12.364;2023-07-08T01:50:45;18.70;99.90
15259;DHT22;34462;51.368;12.364;2023-07-08T01:53:22;18.60;99.90
15259;DHT22;34462;51.368;12.364;2023-07-08T01:55:55;18.50;99.90
15259;DHT22;34462;51.368;12.364;2023-07-08T01:58:23;18.50;99.90
15259;DHT22;34462;51.368;12.364;2023-07-08T02:00:52;18.50;99.90
15259;DHT22;34462;51.368;12.364;2023-07-08T02:03:20;18.50;99.90
15259;DHT22;34462;51.368;12.364;2023-07-08T02:05:49;18.40;99.90
15259;DHT22;34462;51.368;12.364;2023-07-08T02:08:19;18.30;99.90
15259;DHT22;34462;51.368;12.364;2023-07-08T02:10:49;18.30;99.90
15259;DHT22;34462;51.368;12.364;2023-07-08T02:13:19;18.30;99.90
15259;DHT22;34462;51.368;12.364;2023-07-08T02:15:48;18.30;99.90
15259;DHT22;34462;51.368;12.364;2023-07-08T02:18:16;18.20;99.90
15259;DHT22;34462;51.368;12.364;2023-07-08T02:20:45;18.20;99.90
15259;DHT22;34462;51.368;12.364;2023-07-08T02:23:14;18.20;99.90
15259;DHT22;34462;51.368;12.364;2023-07-08T02:25:51;18.20;99.90
15259;DHT22;34462;51.368;12.364;2023-07-08T02:28:20;18.10;99.90
15259;DHT22;34462;51.368;12.364;2023-07-08T02:30:49;18.00;99.90
15259;DHT22;34462;51.368;12.364;2023-07-08T02:33:17;17.90;99.90
15259;DHT22;34462;51.368;12.364;2023-07-08T02:35:45;17.90;99.90
15259;DHT22;34462;51.368;12.364;2023-07-08T02:38:13;17.90;99.90
15259;DHT22;34462;51.368;12.364;2023-07-08T02:40:42;17.80;99.90
15259;DHT22;34462;51.368;12.364;2023-07-08T02:43:11;17.80;99.90
15259;DHT22;34462;51.368;12.364;2023-07-08T02:45:39;17.80;99.90
15259;DHT22;34462;51.368;12.364;2023-07-08T02:48:08;17.80;99.90
15259;DHT22;34462;51.368;12.364;2023-07-08T02:50:36;17.70;99.90
15259;DHT22;34462;51.368;12.364;2023-07-08T02:53:04;17.70;99.90
15259;DHT22;34462;51.368;12.364;2023-07-08T02:55:32;17.60;99.90
15259;DHT22;34462;51.368;12.364;2023-07-08T02:58:00;17.60;99.90
15259;DHT22;34462;51.368;12.364;2023-07-08T03:00:30;17.60;99.90
15259;DHT22;34462;51.368;12.364;2023-07-08T03:02:58;17.70;99.90
15259;DHT22;34462;51.368;12.364;2023-07-08T03:05:26;17.60;99.90
15259;DHT22;34462;51.368;12.364;2023-07-08T03:07:55;17.60;99.90
15259;DHT22;34462;51.368;12.364;2023-07-08T03:10:23;17.60;99.90
15259;DHT22;34462;51.368;12.364;2023-07-08T03:12:51;17.50;99.90
15259;DHT22;34462;51.368;12.364;2023-07-08T03:15:19;17.50;99.90
15259;DHT22;34462;51.368;12.364;2023-07-08T03:17:49;17.50;99.90
15259;DHT22;34462;51.368;12.364;2023-07-08T03:20:17;17.50;99.90
15259;DHT22;34462;51.368;12.364;2023-07-08T03:22:45;17.50;99.90
15259;DHT22;34462;51.368;12.364;2023-07-08T03:25:13;17.40;99.90
15259;DHT22;34462;51.368;12.364;2023-07-08T03:27:41;17.50;99.90
15259;DHT22;34462;51.368;12.364;2023-07-08T03:30:10;17.50;99.90
15259;DHT22;34462;51.368;12.364;2023-07-08T03:32:39;17.50;99.90
15259;DHT22;34462;51.368;12.364;2023-07-08T03:35:09;17.50;99.90
15259;DHT22;34462;51.368;12.364;2023-07-08T03:37:37;17.60;99.90
15259;DHT22;34462;51.368;12.364;2023-07-08T03:40:08;17.60;99.90
15259;DHT22;34462;51.368;12.364;2023-07-08T03:42:38;17.60;99.90
15259;DHT22;34462;51.368;12.364;2023-07-08T03:45:06;17.70;99.90
15259;DHT22;34462;51.368;12.364;2023-07-08T03:47:35;17.70;99.90
15259;DHT22;34462;51.368;12.364;2023-07-08T03:50:05;17.70;99.90
15259;DHT22;34462;51.368;12.364;2023-07-08T03:52:35;17.70;99.90
15259;DHT22;34462;51.368;12.364;2023-07-08T03:55:04;17.80;99.90
15259;DHT22;34462;51.368;12.364;2023-07-08T03:57:32;17.80;99.90
15259;DHT22;34462;51.368;12.364;2023-07-08T04:00:01;17.80;99.90
15259;DHT22;34462;51.368;12.364;2023-07-08T04:02:30;17.80;99.90
15259;DHT22;34462;51.368;12.364;2023-07-08T04:04:58;17.90;99.90
15259;DHT22;34462;51.368;12.364;2023-07-08T04:07:26;17.90;99.90
15259;DHT22;34462;51.368;12.364;2023-07-08T04:09:56;17.90;99.90
15259;DHT22;34462;51.368;12.364;2023-07-08T04:12:24;17.90;99.90
15259;DHT22;34462;51.368;12.364;2023-07-08T04:14:52;17.90;99.90
15259;DHT22;34462;51.368;12.364;2023-07-08T04:17:21;18.00;99.90
15259;DHT22;34462;51.368;12.364;2023-07-08T04:19:50;18.00;99.90
15259;DHT22;34462;51.368;12.364;2023-07-08T04:22:18;18.10;99.90
15259;DHT22;34462;51.368;12.364;2023-07-08T04:24:46;18.10;99.90
15259;DHT22;34462;51.368;12.364;2023-07-08T04:27:17;18.20;99.90
15259;DHT22;34462;51.368;12.364;2023-07-08T04:29:45;18.20;99.90
15259;DHT22;34462;51.368;12.364;2023-07-08T04:32:13;18.30;99.90
15259;DHT22;34462;51.368;12.364;2023-07-08T04:34:41;18.30;99.90
15259;DHT22;34462;51.368;12.364;2023-07-08T04:37:11;18.40;99.90
15259;DHT22;34462;51.368;12.364;2023-07-08T04:39:43;18.50;99.90
15259;DHT22;34462;51.368;12.364;2023-07-08T04:42:11;18.50;99.90
15259;DHT22;34462;51.368;12.364;2023-07-08T04:44:45;18.60;99.90
15259;DHT22;34462;51.368;12.364;2023-07-08T04:47:13;18.70;99.90
15259;DHT22;34462;51.368;12.364;2023-07-08T04:49:41;18.80;99.90
15259;DHT22;34462;51.368;12.364;2023-07-08T04:52:10;18.90;99.90
15259;DHT22;34462;51.368;12.364;2023-07-08T04:54:38;19.10;99.90
15259;DHT22;34462;51.368;12.364;2023-07-08T04:57:07;19.30;99.90
15259;DHT22;34462;51.368;12.364;2023-07-08T04:59:35;20.20;99.90
15259;DHT22;34462;51.368;12.364;2023-07-08T05:02:05;21.70;99.90
15259;DHT22;34462;51.368;12.364;2023-07-08T05:04:33;23.50;99.90
15259;DHT22;34462;51.368;12.364;2023-07-08T05:07:01;25.00;99.90
15259;DHT22;34462;51.368;12.364;2023-07-08T05:11:58;27.40;99.90
15259;DHT22;34462;51.368;12.364;2023-07-08T05:14:26;28.30;99.90
15259;DHT22;34462;51.368;12.364;2023-07-08T05:16:56;28.90;99.90
15259;DHT22;34462;51.368;12.364;2023-07-08T05:19:27;29.30;99.90
15259;DHT22;34462;51.368;12.364;2023-07-08T05:21:55;29.70;99.90
15259;DHT22;34462;51.368;12.364;2023-07-08T05:24:23;29.80;99.90
15259;DHT22;34462;51.368;12.364;2023-07-08T05:26:51;30.00;99.90
15259;DHT22;34462;51.368;12.364;2023-07-08T05:29:20;30.20;99.90
15259;DHT22;34462;51.368;12.364;2023-07-08T05:31:48;30.00;99.90
15259;DHT22;34462;51.368;12.364;2023-07-08T05:34:16;30.10;99.90
15259;DHT22;34462;51.368;12.364;2023-07-08T05:36:45;29.70;99.90
15259;DHT22;34462;51.368;12.364;2023-07-08T05:39:14;29.30;99.90
15259;DHT22;34462;51.368;12.364;2023-07-08T05:41:42;29.30;99.90
15259;DHT22;34462;51.368;12.364;2023-07-08T05:44:10;28.80;99.90
15259;DHT22;34462;51.368;12.364;2023-07-08T05:46:38;28.40;99.90
15259;DHT22;34462;51.368;12.364;2023-07-08T05:49:06;27.70;99.90
15259;DHT22;34462;51.368;12.364;2023-07-08T05:51:35;26.70;99.90
15259;DHT22;34462;51.368;12.364;2023-07-08T05:54:05;26.10;99.90
15259;DHT22;34462;51.368;12.364;2023-07-08T05:56:34;25.60;99.90
15259;DHT22;34462;51.368;12.364;2023-07-08T05:59:02;25.20;99.90
15259;DHT22;34462;51.368;12.364;2023-07-08T06:01:31;25.00;99.90
15259;DHT22;34462;51.368;12.364;2023-07-08T06:04:00;24.90;99.90
15259;DHT22;34462;51.368;12.364;2023-07-08T06:06:28;24.80;99.90
15259;DHT22;34462;51.368;12.364;2023-07-08T06:08:57;24.70;99.90
15259;DHT22;34462;51.368;12.364;2023-07-08T06:11:28;24.40;99.90
15259;DHT22;34462;51.368;12.364;2023-07-08T06:13:59;24.50;99.90
15259;DHT22;34462;51.368;12.364;2023-07-08T06:16:28;24.60;99.90
15259;DHT22;34462;51.368;12.364;2023-07-08T06:19:07;24.70;99.90
15259;DHT22;34462;51.368;12.364;2023-07-08T06:21:36;24.70;99.90
15259;DHT22;34462;51.368;12.364;2023-07-08T06:24:05;24.80;99.90
15259;DHT22;34462;51.368;12.364;2023-07-08T06:26:35;24.80;99.90
15259;DHT22;34462;51.368;12.364;2023-07-08T06:29:04;24.90;99.90
15259;DHT22;34462;51.368;12.364;2023-07-08T06:31:32;25.00;99.90
15259;DHT22;34462;51.368;12.364;2023-07-08T06:34:01;25.10;99.90
15259;DHT22;34462;51.368;12.364;2023-07-08T06:36:29;25.20;99.90
15259;DHT22;34462;51.368;12.364;2023-07-08T06:38:58;25.20;99.90
15259;DHT22;34462;51.368;12.364;2023-07-08T06:41:26;25.30;99.90
15259;DHT22;34462;51.368;12.364;2023-07-08T06:43:55;25.40;99.90
15259;DHT22;34462;51.368;12.364;2023-07-08T06:46:24;25.40;99.90
15259;DHT22;34462;51.368;12.364;2023-07-08T06:48:53;25.50;99.90
15259;DHT22;34462;51.368;12.364;2023-07-08T06:51:21;25.50;99.90
15259;DHT22;34462;51.368;12.364;2023-07-08T06:53:49;25.40;99.90
15259;DHT22;34462;51.368;12.364;2023-07-08T06:56:18;25.30;99.90
15259;DHT22;34462;51.368;12.364;2023-07-08T06:58:47;25.30;99.90
15259;DHT22;34462;51.368;12.364;2023-07-08T07:01:16;25.10;99.90
15259;DHT22;34462;51.368;12.364;2023-07-08T07:03:45;25.00;99.90
15259;DHT22;34462;51.368;12.364;2023-07-08T07:06:13;24.90;99.90
15259;DHT22;34462;51.368;12.364;2023-07-08T07:08:41;24.80;99.90
15259;DHT22;34462;51.368;12.364;2023-07-08T07:11:10;24.80;99.90
15259;DHT22;34462;51.368;12.364;2023-07-08T07:13:38;24.90;99.90
15259;DHT22;34462;51.368;12.364;2023-07-08T07:16:06;25.10;99.90
15259;DHT22;34462;51.368;12.364;2023-07-08T07:18:36;25.20;99.90
15259;DHT22;34462;51.368;12.364;2023-07-08T07:21:04;25.40;99.90
15259;DHT22;34462;51.368;12.364;2023-07-08T07:23:33;25.40;99.90
15259;DHT22;34462;51.368;12.364;2023-07-08T07:26:01;25.60;99.90
15259;DHT22;34462;51.368;12.364;2023-07-08T07:28:31;25.80;99.90
15259;DHT22;34462;51.368;12.364;2023-07-08T07:31:00;25.80;99.90
15259;DHT22;34462;51.368;12.364;2023-07-08T07:33:29;25.90;99.90
15259;DHT22;34462;51.368;12.364;2023-07-08T07:35:59;25.80;99.90
15259;DHT22;34462;51.368;12.364;2023-07-08T07:38:28;25.80;99.90
15259;DHT22;34462;51.368;12.364;2023-07-08T07:40:57;26.00;99.90
15259;DHT22;34462;51.368;12.364;2023-07-08T07:43:27;26.00;99.90
15259;DHT22;34462;51.368;12.364;2023-07-08T07:45:55;26.20;99.90
15259;DHT22;34462;51.368;12.364;2023-07-08T07:48:24;26.10;99.90
15259;DHT22;34462;51.368;12.364;2023-07-08T07:50:52;26.10;99.90
15259;DHT22;34462;51.368;12.364;2023-07-08T07:53:22;26.20;99.90
15259;DHT22;34462;51.368;12.364;2023-07-08T07:55:56;26.30;99.90
15259;DHT22;34462;51.368;12.364;2023-07-08T07:58:25;26.30;99.90
15259;DHT22;34462;51.368;12.364;2023-07-08T08:00:54;26.30;99.90
15259;DHT22;34462;51.368;12.364;2023-07-08T08:03:22;26.40;99.90
15259;DHT22;34462;51.368;12.364;2023-07-08T08:05:51;26.40;99.90
15259;DHT22;34462;51.368;12.364;2023-07-08T08:08:19;26.30;99.90
15259;DHT22;34462;51.368;12.364;2023-07-08T08:10:50;26.20;99.90
15259;DHT22;34462;51.368;12.364;2023-07-08T08:13:18;26.20;99.90
15259;DHT22;34462;51.368;12.364;2023-07-08T08:15:47;26.20;99.90
15259;DHT22;34462;51.368;12.364;2023-07-08T08:18:15;26.20;99.90
15259;DHT22;34462;51.368;12.364;2023-07-08T08:20:43;26.30;99.90
15259;DHT22;34462;51.368;12.364;2023-07-08T08:23:11;26.10;99.90
15259;DHT22;34462;51.368;12.364;2023-07-08T08:25:39;26.10;99.90
15259;DHT22;34462;51.368;12.364;2023-07-08T08:28:09;26.20;99.90
15259;DHT22;34462;51.368;12.364;2023-07-08T08:30:37;26.10;99.90
15259;DHT22;34462;51.368;12.364;2023-07-08T08:33:05;26.00;99.90
15259;DHT22;34462;51.368;12.364;2023-07-08T08:35:33;26.00;99.90
15259;DHT22;34462;51.368;12.364;2023-07-08T08:38:03;26.00;99.90
15259;DHT22;34462;51.368;12.364;2023-07-08T08:40:32;26.10;99.90
15259;DHT22;34462;51.368;12.364;2023-07-08T08:43:03;26.20;99.90
15259;DHT22;34462;51.368;12.364;2023-07-08T08:45:39;26.30;99.90
15259;DHT22;34462;51.368;12.364;2023-07-08T08:48:17;26.40;99.90
15259;DHT22;34462;51.368;12.364;2023-07-08T08:50:51;26.50;99.90
15259;DHT22;34462;51.368;12.364;2023-07-08T08:53:25;26.60;99.90
15259;DHT22;34462;51.368;12.364;2023-07-08T08:55:57;26.70;99.90
15259;DHT22;34462;51.368;12.364;2023-07-08T08:58:37;26.80;99.90
15259;DHT22;34462;51.368;12.364;2023-07-08T09:01:14;26.80;99.90
15259;DHT22;34462;51.368;12.364;2023-07-08T09:03:49;26.80;99.90
15259;DHT22;34462;51.368;12.364;2023-07-08T09:06:23;26.70;99.90
15259;DHT22;34462;51.368;12.364;2023-07-08T09:08:57;26.80;99.90
15259;DHT22;34462;51.368;12.364;2023-07-08T09:11:41;27.00;99.90
15259;DHT22;34462;51.368;12.364;2023-07-08T09:14:16;27.10;99.90
15259;DHT22;34462;51.368;12.364;2023-07-08T09:16:58;27.30;99.90
15259;DHT22;34462;51.368;12.364;2023-07-08T09:19:41;27.50;99.90
15259;DHT22;34462;51.368;12.364;2023-07-08T09:22:15;27.70;99.90
15259;DHT22;34462;51.368;12.364;2023-07-08T09:24:51;27.80;99.90
15259;DHT22;34462;51.368;12.364;2023-07-08T09:27:24;27.90;99.90
15259;DHT22;34462;51.368;12.364;2023-07-08T09:29:52;28.00;99.90
15259;DHT22;34462;51.368;12.364;2023-07-08T09:32:24;27.90;99.90
15259;DHT22;34462;51.368;12.364;2023-07-08T09:35:01;27.80;99.90
15259;DHT22;34462;51.368;12.364;2023-07-08T09:37:34;27.60;99.90
15259;DHT22;34462;51.368;12.364;2023-07-08T09:40:14;27.60;99.90
15259;DHT22;34462;51.368;12.364;2023-07-08T09:42:48;27.50;99.90
15259;DHT22;34462;51.368;12.364;2023-07-08T09:45:21;27.50;99.90
15259;DHT22;34462;51.368;12.364;2023-07-08T09:47:54;27.40;99.90
15259;DHT22;34462;51.368;12.364;2023-07-08T09:50:26;27.50;99.90
15259;DHT22;34462;51.368;12.364;2023-07-08T09:52:57;27.70;99.90
15259;DHT22;34462;51.368;12.364;2023-07-08T09:55:28;27.90;99.90
15259;DHT22;34462;51.368;12.364;2023-07-08T09:57:58;28.00;99.90
15259;DHT22;34462;51.368;12.364;2023-07-08T10:00:34;28.10;99.90
15259;DHT22;34462;51.368;12.364;2023-07-08T10:03:14;28.30;99.90
15259;DHT22;34462;51.368;12.364;2023-07-08T10:05:48;28.40;99.90
15259;DHT22;34462;51.368;12.364;2023-07-08T10:08:20;28.40;99.90
15259;DHT22;34462;51.368;12.364;2023-07-08T10:10:55;28.60;99.90
15259;DHT22;34462;51.368;12.364;2023-07-08T10:13:34;28.80;99.90
15259;DHT22;34462;51.368;12.364;2023-07-08T10:16:12;28.90;99.90
15259;DHT22;34462;51.368;12.364;2023-07-08T10:18:44;29.00;99.90
15259;DHT22;34462;51.368;12.364;2023-07-08T10:21:22;29.20;99.90
15259;DHT22;34462;51.368;12.364;2023-07-08T10:24:09;29.30;99.90
15259;DHT22;34462;51.368;12.364;2023-07-08T10:26:56;29.30;99.90
15259;DHT22;34462;51.368;12.364;2023-07-08T10:29:34;29.50;99.90
15259;DHT22;34462;51.368;12.364;2023-07-08T10:32:16;29.50;99.90
15259;DHT22;34462;51.368;12.364;2023-07-08T10:34:59;29.50;99.90
15259;DHT22;34462;51.368;12.364;2023-07-08T10:37:42;29.40;99.90
15259;DHT22;34462;51.368;12.364;2023-07-08T10:40:33;29.30;99.90
15259;DHT22;34462;51.368;12.364;2023-07-08T10:43:25;29.30;99.90
15259;DHT22;34462;51.368;12.364;2023-07-08T10:46:21;29.30;99.90
15259;DHT22;34462;51.368;12.364;2023-07-08T10:49:12;29.30;99.90
15259;DHT22;34462;51.368;12.364;2023-07-08T10:52:05;29.30;99.90
15259;DHT22;34462;51.368;12.364;2023-07-08T10:54:58;29.40;99.90
15259;DHT22;34462;51.368;12.364;2023-07-08T11:00:51;29.40;99.90
15259;DHT22;34462;51.368;12.364;2023-07-08T11:03:56;29.40;99.90
15259;DHT22;34462;51.368;12.364;2023-07-08T11:06:44;29.30;99.90
15259;DHT22;34462;51.368;12.364;2023-07-08T11:09:21;29.30;99.90
15259;DHT22;34462;51.368;12.364;2023-07-08T11:11:59;29.30;99.90
15259;DHT22;34462;51.368;12.364;2023-07-08T11:14:40;29.10;99.90
15259;DHT22;34462;51.368;12.364;2023-07-08T11:17:19;29.20;99.90
15259;DHT22;34462;51.368;12.364;2023-07-08T11:19:57;29.30;99.90
15259;DHT22;34462;51.368;12.364;2023-07-08T11:22:31;29.30;99.90
15259;DHT22;34462;51.368;12.364;2023-07-08T11:25:04;29.30;99.90
15259;DHT22;34462;51.368;12.364;2023-07-08T11:27:46;29.30;99.90
15259;DHT22;34462;51.368;12.364;2023-07-08T11:30:22;29.20;99.90
15259;DHT22;34462;51.368;12.364;2023-07-08T11:32:58;29.20;99.90
15259;DHT22;34462;51.368;12.364;2023-07-08T11:35:37;29.30;99.90
15259;DHT22;34462;51.368;12.364;2023-07-08T11:38:12;29.40;99.90
15259;DHT22;34462;51.368;12.364;2023-07-08T11:40:53;29.50;99.90
15259;DHT22;34462;51.368;12.364;2023-07-08T11:43:27;29.40;99.90
15259;DHT22;34462;51.368;12.364;2023-07-08T11:46:04;29.40;99.90
15259;DHT22;34462;51.368;12.364;2023-07-08T11:48:40;29.40;99.90
15259;DHT22;34462;51.368;12.364;2023-07-08T11:51:17;29.30;99.90
15259;DHT22;34462;51.368;12.364;2023-07-08T11:53:48;29.40;99.90
15259;DHT22;34462;51.368;12.364;2023-07-08T11:56:24;29.30;99.90
15259;DHT22;34462;51.368;12.364;2023-07-08T11:59:11;29.30;99.90
15259;DHT22;34462;51.368;12.364;2023-07-08T12:01:52;29.30;99.90
15259;DHT22;34462;51.368;12.364;2023-07-08T12:04:28;29.40;99.90
15259;DHT22;34462;51.368;12.364;2023-07-08T12:07:16;29.50;99.90
15259;DHT22;34462;51.368;12.364;2023-07-08T12:09:58;29.60;98.50
15259;DHT22;34462;51.368;12.364;2023-07-08T12:12:36;29.80;98.10
15259;DHT22;34462;51.368;12.364;2023-07-08T12:15:15;30.10;97.90
15259;DHT22;34462;51.368;12.364;2023-07-08T12:17:52;30.20;96.90
15259;DHT22;34462;51.368;12.364;2023-07-08T12:20:24;30.30;96.60
15259;DHT22;34462;51.368;12.364;2023-07-08T12:22:56;30.30;95.60
15259;DHT22;34462;51.368;12.364;2023-07-08T12:25:28;30.40;95.60
15259;DHT22;34462;51.368;12.364;2023-07-08T12:28:00;30.40;95.00
15259;DHT22;34462;51.368;12.364;2023-07-08T12:30:31;30.40;95.60
15259;DHT22;34462;51.368;12.364;2023-07-08T12:33:01;30.40;96.30
15259;DHT22;34462;51.368;12.364;2023-07-08T12:35:32;30.50;96.40
15259;DHT22;34462;51.368;12.364;2023-07-08T12:38:09;30.50;97.30
15259;DHT22;34462;51.368;12.364;2023-07-08T12:40:45;30.70;96.20
15259;DHT22;34462;51.368;12.364;2023-07-08T12:43:15;30.60;95.70
15259;DHT22;34462;51.368;12.364;2023-07-08T12:45:45;30.50;95.90
15259;DHT22;34462;51.368;12.364;2023-07-08T12:48:13;30.40;96.00
15259;DHT22;34462;51.368;12.364;2023-07-08T12:50:42;30.50;96.40
15259;DHT22;34462;51.368;12.364;2023-07-08T12:53:11;30.70;96.20
15259;DHT22;34462;51.368;12.364;2023-07-08T12:55:41;30.70;96.60
15259;DHT22;34462;51.368;12.364;2023-07-08T12:58:16;30.70;97.70
15259;DHT22;34462;51.368;12.364;2023-07-08T13:00:50;30.70;96.20
15259;DHT22;34462;51.368;12.364;2023-07-08T13:03:20;30.70;95.90
15259;DHT22;34462;51.368;12.364;2023-07-08T13:05:53;30.60;95.70
15259;DHT22;34462;51.368;12.364;2023-07-08T13:08:25;30.60;95.40
15259;DHT22;34462;51.368;12.364;2023-07-08T13:11:00;30.50;95.90
15259;DHT22;34462;51.368;12.364;2023-07-08T13:13:34;30.40;96.30
15259;DHT22;34462;51.368;12.364;2023-07-08T13:16:08;30.20;95.50
15259;DHT22;34462;51.368;12.364;2023-07-08T13:18:40;30.20;94.80
15259;DHT22;34462;51.368;12.364;2023-07-08T13:21:12;30.20;95.30
15259;DHT22;34462;51.368;12.364;2023-07-08T13:23:43;30.20;95.00
15259;DHT22;34462;51.368;12.364;2023-07-08T13:26:13;30.20;94.90
15259;DHT22;34462;51.368;12.364;2023-07-08T13:28:45;30.30;94.70
15259;DHT22;34462;51.368;12.364;2023-07-08T13:31:15;30.30;94.80
15259;DHT22;34462;51.368;12.364;2023-07-08T13:33:52;30.50;95.30
15259;DHT22;34462;51.368;12.364;2023-07-08T13:36:23;30.60;94.80
15259;DHT22;34462;51.368;12.364;2023-07-08T13:38:52;30.70;94.20
15259;DHT22;34462;51.368;12.364;2023-07-08T13:41:22;30.70;94.10
15259;DHT22;34462;51.368;12.364;2023-07-08T13:43:53;30.70;94.30
15259;DHT22;34462;51.368;12.364;2023-07-08T13:46:33;30.60;94.40
15259;DHT22;34462;51.368;12.364;2023-07-08T13:49:11;30.50;93.90
15259;DHT22;34462;51.368;12.364;2023-07-08T13:51:41;30.50;94.20
15259;DHT22;34462;51.368;12.364;2023-07-08T13:54:20;30.70;94.20
15259;DHT22;34462;51.368;12.364;2023-07-08T13:56:50;30.70;94.10
15259;DHT22;34462;51.368;12.364;2023-07-08T13:59:22;30.70;93.90
15259;DHT22;34462;51.368;12.364;2023-07-08T14:01:54;30.70;94.00
15259;DHT22;34462;51.368;12.364;2023-07-08T14:04:28;30.70;93.90
15259;DHT22;34462;51.368;12.364;2023-07-08T14:06:58;30.50;94.00
15259;DHT22;34462;51.368;12.364;2023-07-08T14:09:27;30.50;93.80
15259;DHT22;34462;51.368;12.364;2023-07-08T14:11:55;30.30;94.00
15259;DHT22;34462;51.368;12.364;2023-07-08T14:14:25;30.40;94.00
15259;DHT22;34462;51.368;12.364;2023-07-08T14:16:53;30.40;94.60
15259;DHT22;34462;51.368;12.364;2023-07-08T14:19:25;30.40;95.20
15259;DHT22;34462;51.368;12.364;2023-07-08T14:21:56;30.30;94.60
15259;DHT22;34462;51.368;12.364;2023-07-08T14:24:26;30.30;94.40
15259;DHT22;34462;51.368;12.364;2023-07-08T14:26:54;30.20;94.50
15259;DHT22;34462;51.368;12.364;2023-07-08T14:29:23;30.20;93.90
15259;DHT22;34462;51.368;12.364;2023-07-08T14:31:52;30.10;94.10
15259;DHT22;34462;51.368;12.364;2023-07-08T14:34:24;30.20;94.00
15259;DHT22;34462;51.368;12.364;2023-07-08T14:36:53;30.20;93.50
15259;DHT22;34462;51.368;12.364;2023-07-08T14:39:22;30.10;93.70
15259;DHT22;34462;51.368;12.364;2023-07-08T14:41:50;29.90;93.80
15259;DHT22;34462;51.368;12.364;2023-07-08T14:44:21;29.90;93.60
15259;DHT22;34462;51.368;12.364;2023-07-08T14:46:53;30.00;94.20
15259;DHT22;34462;51.368;12.364;2023-07-08T14:49:23;29.90;94.40
15259;DHT22;34462;51.368;12.364;2023-07-08T14:51:52;30.00;94.20
15259;DHT22;34462;51.368;12.364;2023-07-08T14:54:21;29.90;93.30
15259;DHT22;34462;51.368;12.364;2023-07-08T14:56:49;29.80;93.40
15259;DHT22;34462;51.368;12.364;2023-07-08T14:59:21;29.80;94.00
15259;DHT22;34462;51.368;12.364;2023-07-08T15:01:52;29.80;93.20
15259;DHT22;34462;51.368;12.364;2023-07-08T15:04:23;29.70;93.40
15259;DHT22;34462;51.368;12.364;2023-07-08T15:06:52;29.70;93.60
15259;DHT22;34462;51.368;12.364;2023-07-08T15:09:23;29.70;94.60
15259;DHT22;34462;51.368;12.364;2023-07-08T15:11:51;29.70;94.00
15259;DHT22;34462;51.368;12.364;2023-07-08T15:14:22;29.70;94.60
15259;DHT22;34462;51.368;12.364;2023-07-08T15:16:54;29.80;94.10
15259;DHT22;34462;51.368;12.364;2023-07-08T15:19:24;29.80;94.50
15259;DHT22;34462;51.368;12.364;2023-07-08T15:21:52;29.80;94.60
15259;DHT22;34462;51.368;12.364;2023-07-08T15:24:20;29.80;94.80
15259;DHT22;34462;51.368;12.364;2023-07-08T15:26:51;29.80;94.70
15259;DHT22;34462;51.368;12.364;2023-07-08T15:29:21;29.80;95.10
15259;DHT22;34462;51.368;12.364;2023-07-08T15:31:51;29.80;95.00
15259;DHT22;34462;51.368;12.364;2023-07-08T15:34:21;29.80;95.20
15259;DHT22;34462;51.368;12.364;2023-07-08T15:36:50;29.80;94.90
15259;DHT22;34462;51.368;12.364;2023-07-08T15:39:18;29.80;94.70
15259;DHT22;34462;51.368;12.364;2023-07-08T15:41:48;29.60;94.50
15259;DHT22;34462;51.368;12.364;2023-07-08T15:44:16;29.60;94.10
15259;DHT22;34462;51.368;12.364;2023-07-08T15:46:45;29.50;94.50
15259;DHT22;34462;51.368;12.364;2023-07-08T15:49:17;29.40;94.40